createdAt,value
2022-12-04T00:00:21.321Z,-1.56
2022-12-04T00:03:22.672Z,-1.57
2022-12-04T00:06:24.470Z,-1.57
2022-12-04T00:09:25.741Z,-1.59
2022-12-04T00:12:27.205Z,-1.57
2022-12-04T00:15:28.467Z,-1.55
2022-12-04T00:18:29.774Z,-1.57
2022-12-04T00:21:31.139Z,-1.55
2022-12-04T00:24:33.330Z,-1.56
2022-12-04T00:27:34.578Z,-1.52
2022-12-04T00:30:40.131Z,-1.56
2022-12-04T00:33:41.821Z,-1.53
2022-12-04T00:36:43.530Z,-1.50
2022-12-04T00:39:44.798Z,-1.49
2022-12-04T00:42:46.070Z,-1.46
2022-12-04T00:45:47.437Z,-1.47
2022-12-04T00:48:49.182Z,-1.50
2022-12-04T00:51:50.452Z,-1.50
2022-12-04T00:54:51.726Z,-1.53
2022-12-04T00:57:58.443Z,-1.51
2022-12-04T01:01:27.582Z,-1.52
2022-12-04T01:04:28.947Z,-1.55
2022-12-04T01:07:30.393Z,-1.52
2022-12-04T01:10:31.667Z,-1.53
2022-12-04T01:13:32.944Z,-1.56
2022-12-04T01:16:36.054Z,-1.54
2022-12-04T01:19:37.404Z,-1.49
2022-12-04T01:22:38.784Z,-1.53
2022-12-04T01:25:40.031Z,-1.52
2022-12-04T01:28:41.705Z,-1.53
2022-12-04T01:31:43.018Z,-1.55
2022-12-04T01:34:44.361Z,-1.54
2022-12-04T01:37:45.626Z,-1.49
2022-12-04T01:40:46.864Z,-1.50
2022-12-04T01:44:06.428Z,-1.50
2022-12-04T01:47:09.488Z,-1.51
2022-12-04T01:50:10.782Z,-1.48
2022-12-04T01:53:12.524Z,-1.49
2022-12-04T01:56:14.480Z,-1.47
2022-12-04T01:59:17.282Z,-1.48
2022-12-04T02:02:22.215Z,-1.48
2022-12-04T02:05:23.673Z,-1.45
2022-12-04T02:08:27.201Z,-1.44
2022-12-04T02:11:54.631Z,-1.44
2022-12-04T02:15:19.019Z,-1.48
2022-12-04T02:18:28.650Z,-1.44
2022-12-04T02:21:34.857Z,-1.43
2022-12-04T02:24:50.396Z,-1.42
2022-12-04T02:27:58.450Z,-1.44
2022-12-04T02:31:01.111Z,-1.45
2022-12-04T02:34:05.638Z,-1.47
2022-12-04T02:37:12.801Z,-1.44
2022-12-04T02:40:14.036Z,-1.39
2022-12-04T02:43:18.081Z,-1.40
2022-12-04T02:46:25.420Z,-1.40
2022-12-04T02:49:46.330Z,-1.39
2022-12-04T02:53:20.064Z,-1.36
2022-12-04T02:56:25.821Z,-1.38
2022-12-04T02:59:47.136Z,-1.38
2022-12-04T03:02:52.669Z,-1.35
2022-12-04T03:06:05.932Z,-1.33
2022-12-04T03:09:11.495Z,-1.37
2022-12-04T03:12:16.228Z,-1.37
2022-12-04T03:15:27.020Z,-1.37
2022-12-04T03:18:46.520Z,-1.37
2022-12-04T03:21:56.255Z,-1.32
2022-12-04T03:24:57.833Z,-1.33
2022-12-04T03:28:01.861Z,-1.30
2022-12-04T03:31:05.153Z,-1.30
2022-12-04T03:34:07.489Z,-1.32
2022-12-04T03:37:13.401Z,-1.31
2022-12-04T03:40:17.269Z,-1.30
2022-12-04T03:43:24.513Z,-1.29
2022-12-04T03:46:31.330Z,-1.28
2022-12-04T03:49:47.893Z,-1.33
2022-12-04T03:52:58.677Z,-1.30
2022-12-04T03:56:08.893Z,-1.34
2022-12-04T03:59:12.369Z,-1.32
2022-12-04T04:02:16.368Z,-1.33
2022-12-04T04:05:18.921Z,-1.37
2022-12-04T04:08:23.560Z,-1.38
2022-12-04T04:11:37.330Z,-1.31
2022-12-04T04:15:00.333Z,-1.32
2022-12-04T04:18:01.710Z,-1.35
2022-12-04T04:21:03.124Z,-1.33
2022-12-04T04:24:04.954Z,-1.33
2022-12-04T04:27:06.232Z,-1.34
2022-12-04T04:30:08.515Z,-1.35
2022-12-04T04:33:12.944Z,-1.37
2022-12-04T04:36:34.452Z,-1.37
2022-12-04T04:39:44.658Z,-1.40
2022-12-04T04:42:52.375Z,-1.37
2022-12-04T04:46:13.985Z,-1.35
2022-12-04T04:49:15.865Z,-1.34
2022-12-04T04:52:19.004Z,-1.37
2022-12-04T04:55:21.012Z,-1.38
2022-12-04T04:58:22.312Z,-1.38
2022-12-04T05:01:26.545Z,-1.37
2022-12-04T05:04:27.868Z,-1.37
2022-12-04T05:07:29.160Z,-1.37
2022-12-04T05:10:30.452Z,-1.38
2022-12-04T05:13:32.352Z,-1.35
2022-12-04T05:16:33.701Z,-1.38
2022-12-04T05:19:35.387Z,-1.37
2022-12-04T05:22:37.149Z,-1.40
2022-12-04T05:25:38.441Z,-1.42
2022-12-04T05:28:39.730Z,-1.43
2022-12-04T05:31:41.113Z,-1.39
2022-12-04T05:34:42.437Z,-1.41
2022-12-04T05:37:43.705Z,-1.41
2022-12-04T05:40:45.110Z,-1.41
2022-12-04T05:43:46.375Z,-1.44
2022-12-04T05:46:47.668Z,-1.43
2022-12-04T05:49:48.982Z,-1.41
2022-12-04T05:52:50.231Z,-1.40
2022-12-04T05:55:55.392Z,-1.37
2022-12-04T05:58:56.626Z,-1.34
2022-12-04T06:01:57.947Z,-1.33
2022-12-04T06:04:59.252Z,-1.32
2022-12-04T06:08:00.561Z,-1.35
2022-12-04T06:11:02.066Z,-1.41
2022-12-04T06:14:05.116Z,-1.35
2022-12-04T06:17:06.714Z,-1.33
2022-12-04T06:20:11.685Z,-1.32
2022-12-04T06:23:13.340Z,-1.28
2022-12-04T06:26:14.732Z,-1.32
2022-12-04T06:29:16.311Z,-1.30
2022-12-04T06:32:21.388Z,-1.28
2022-12-04T06:35:23.431Z,-1.30
2022-12-04T06:38:24.712Z,-1.34
2022-12-04T06:41:26.456Z,-1.31
2022-12-04T06:44:27.845Z,-1.31
2022-12-04T06:47:29.156Z,-1.29
2022-12-04T06:50:30.405Z,-1.27
2022-12-04T06:53:32.278Z,-1.30
2022-12-04T06:56:33.754Z,-1.27
2022-12-04T06:59:35.972Z,-1.24
2022-12-04T07:02:37.266Z,-1.22
2022-12-04T07:05:38.573Z,-1.16
2022-12-04T07:08:39.858Z,-1.17
2022-12-04T07:11:41.518Z,-1.13
2022-12-04T07:14:42.823Z,-1.15
2022-12-04T07:17:44.094Z,-1.15
2022-12-04T07:20:45.352Z,-1.09
2022-12-04T07:23:50.697Z,-1.06
2022-12-04T07:26:52.008Z,-1.05
2022-12-04T07:29:53.367Z,-1.06
2022-12-04T07:32:54.784Z,-1.03
2022-12-04T07:35:57.391Z,-1.00
2022-12-04T07:38:58.741Z,-1.02
2022-12-04T07:42:00.027Z,-1.03
2022-12-04T07:45:01.250Z,-0.99
2022-12-04T07:48:02.544Z,-0.95
2022-12-04T07:51:08.253Z,-0.94
2022-12-04T07:54:09.553Z,-0.93
2022-12-04T07:57:10.811Z,-0.95
2022-12-04T08:00:12.501Z,-0.92
2022-12-04T08:03:13.830Z,-0.88
2022-12-04T08:06:16.072Z,-0.88
2022-12-04T08:09:17.317Z,-0.86
2022-12-04T08:12:18.593Z,-0.83
2022-12-04T08:15:20.016Z,-0.78
2022-12-04T08:18:21.322Z,-0.79
2022-12-04T08:21:24.120Z,-0.79
2022-12-04T08:24:25.405Z,-0.77
2022-12-04T08:27:26.698Z,-0.72
2022-12-04T08:30:27.968Z,-0.74
2022-12-04T08:33:29.239Z,-0.67
2022-12-04T08:36:30.501Z,-0.61
2022-12-04T08:39:31.778Z,-0.58
2022-12-04T08:42:33.027Z,-0.57
2022-12-04T08:45:34.317Z,-0.59
2022-12-04T08:48:35.694Z,-0.53
2022-12-04T08:51:37.234Z,-0.56
2022-12-04T08:54:38.488Z,-0.49
2022-12-04T08:57:39.760Z,-0.47
2022-12-04T09:00:41.085Z,-0.41
2022-12-04T09:03:42.673Z,-0.37
2022-12-04T09:06:43.963Z,-0.42
2022-12-04T09:09:48.469Z,-0.31
2022-12-04T09:12:50.075Z,-0.29
2022-12-04T09:15:51.430Z,-0.22
2022-12-04T09:18:53.333Z,-0.21
2022-12-04T09:21:54.594Z,-0.20
2022-12-04T09:24:55.905Z,-0.16
2022-12-04T09:27:57.155Z,-0.05
2022-12-04T09:31:03.398Z,-0.05
2022-12-04T09:34:04.778Z,0.02
2022-12-04T09:37:06.104Z,0.05
2022-12-04T09:40:07.791Z,0.03
2022-12-04T09:43:17.926Z,0.06
2022-12-04T09:46:26.026Z,0.12
2022-12-04T09:49:40.605Z,0.18
2022-12-04T09:52:41.896Z,0.26
2022-12-04T09:55:47.301Z,0.29
2022-12-04T09:58:54.635Z,0.34
2022-12-04T10:02:01.933Z,0.34
2022-12-04T10:05:04.089Z,0.34
2022-12-04T10:08:08.249Z,0.30
2022-12-04T10:11:09.557Z,0.38
2022-12-04T10:14:13.574Z,0.49
2022-12-04T10:17:21.029Z,0.53
2022-12-04T10:20:25.326Z,0.64
2022-12-04T10:23:38.889Z,0.75
2022-12-04T10:26:43.730Z,0.70
2022-12-04T10:29:47.222Z,0.75
2022-12-04T10:32:52.285Z,0.78
2022-12-04T10:35:54.063Z,0.76
2022-12-04T10:38:57.450Z,0.81
2022-12-04T10:42:05.298Z,0.79
2022-12-04T10:45:07.143Z,0.83
2022-12-04T10:48:15.087Z,0.93
2022-12-04T10:51:17.639Z,0.93
2022-12-04T10:54:30.963Z,0.88
2022-12-04T10:57:40.156Z,0.98
2022-12-04T11:00:41.429Z,1.01
2022-12-04T11:03:44.078Z,0.98
2022-12-04T11:06:45.456Z,0.96
2022-12-04T11:09:58.205Z,0.97
2022-12-04T11:12:59.783Z,0.96
2022-12-04T11:16:01.130Z,1.02
2022-12-04T11:19:02.610Z,1.02
2022-12-04T11:22:09.883Z,1.06
2022-12-04T11:25:15.486Z,1.06
2022-12-04T11:28:33.788Z,1.09
2022-12-04T11:31:40.524Z,1.07
2022-12-04T11:34:41.858Z,1.09
2022-12-04T11:37:51.561Z,1.13
2022-12-04T11:40:54.823Z,1.06
2022-12-04T11:44:00.000Z,1.12
2022-12-04T11:47:03.554Z,1.13
2022-12-04T11:50:18.808Z,1.13
2022-12-04T11:53:25.940Z,1.15
2022-12-04T11:56:27.189Z,1.13
2022-12-04T11:59:43.854Z,1.20
2022-12-04T12:03:02.522Z,1.18
2022-12-04T12:06:09.745Z,1.24
2022-12-04T12:09:19.919Z,1.19
2022-12-04T12:12:34.309Z,1.20
2022-12-04T12:15:48.111Z,1.24
2022-12-04T12:18:49.399Z,1.26
2022-12-04T12:21:53.431Z,1.23
2022-12-04T12:25:05.829Z,1.23
2022-12-04T12:28:25.611Z,1.30
2022-12-04T12:31:45.472Z,1.28
2022-12-04T12:34:47.406Z,1.28
2022-12-04T12:37:51.530Z,1.33
2022-12-04T12:40:58.971Z,1.35
2022-12-04T12:44:06.973Z,1.36
2022-12-04T12:47:17.419Z,1.40
2022-12-04T12:50:25.784Z,1.43
2022-12-04T12:53:28.879Z,1.42
2022-12-04T12:56:33.639Z,1.43
2022-12-04T12:59:38.601Z,1.45
2022-12-04T13:02:53.324Z,1.46
2022-12-04T13:05:56.161Z,1.49
2022-12-04T13:09:06.573Z,1.48
2022-12-04T13:12:14.517Z,1.50
2022-12-04T13:15:17.096Z,1.51
2022-12-04T13:18:24.897Z,1.52
2022-12-04T13:21:26.118Z,1.57
2022-12-04T13:24:33.257Z,1.58
2022-12-04T13:27:45.026Z,1.61
2022-12-04T13:31:06.574Z,1.60
2022-12-04T13:34:34.905Z,1.62
2022-12-04T13:37:45.962Z,1.64
2022-12-04T13:40:58.229Z,1.64
2022-12-04T13:44:04.159Z,1.68
2022-12-04T13:47:12.658Z,1.70
2022-12-04T13:50:20.230Z,1.71
2022-12-04T13:53:35.734Z,1.74
2022-12-04T13:56:37.786Z,1.75
2022-12-04T13:59:39.802Z,1.77
2022-12-04T14:02:48.949Z,1.78
2022-12-04T14:05:50.498Z,1.81
2022-12-04T14:09:15.051Z,1.82
2022-12-04T14:12:17.147Z,1.83
2022-12-04T14:15:26.023Z,1.85
2022-12-04T14:18:29.028Z,1.86
2022-12-04T14:21:39.162Z,1.87
2022-12-04T14:24:40.447Z,1.87
2022-12-04T14:27:41.739Z,1.91
2022-12-04T14:30:43.915Z,1.94
2022-12-04T14:33:45.228Z,1.94
2022-12-04T14:36:47.501Z,1.97
2022-12-04T14:39:49.403Z,1.98
2022-12-04T14:42:51.822Z,2.00
2022-12-04T14:45:53.100Z,2.01
2022-12-04T14:49:03.300Z,2.02
2022-12-04T14:52:07.588Z,2.03
2022-12-04T14:55:11.886Z,2.04
2022-12-04T14:58:18.154Z,2.08
2022-12-04T15:01:28.348Z,2.09
2022-12-04T15:04:32.577Z,2.10
2022-12-04T15:07:34.354Z,2.14
2022-12-04T15:10:35.658Z,2.14
2022-12-04T15:13:37.848Z,2.15
2022-12-04T15:16:39.431Z,2.19
2022-12-04T15:19:40.965Z,2.21
2022-12-04T15:22:42.566Z,2.20
2022-12-04T15:25:48.907Z,2.22
2022-12-04T15:28:50.169Z,2.24
2022-12-04T15:31:54.398Z,2.25
2022-12-04T15:34:59.110Z,2.28
2022-12-04T15:38:00.598Z,2.28
2022-12-04T15:41:02.020Z,2.30
2022-12-04T15:44:20.982Z,2.31
2022-12-04T15:47:24.393Z,2.32
2022-12-04T15:50:26.695Z,2.34
2022-12-04T15:53:30.119Z,2.35
2022-12-04T15:56:31.439Z,2.36
2022-12-04T15:59:34.805Z,2.38
2022-12-04T16:02:39.626Z,2.38
2022-12-04T16:05:40.933Z,2.41
2022-12-04T16:08:43.471Z,2.43
2022-12-04T16:11:44.738Z,2.45
2022-12-04T16:14:45.991Z,2.46
2022-12-04T16:17:47.328Z,2.47
2022-12-04T16:20:48.626Z,2.48
2022-12-04T16:23:49.912Z,2.48
2022-12-04T16:26:51.950Z,2.50
2022-12-04T16:29:53.556Z,2.50
2022-12-04T16:32:54.848Z,2.52
2022-12-04T16:35:56.177Z,2.53
2022-12-04T16:38:57.449Z,2.53
2022-12-04T16:41:58.712Z,2.55
2022-12-04T16:45:00.193Z,2.57
2022-12-04T16:48:01.540Z,2.59
2022-12-04T16:51:02.877Z,2.60
2022-12-04T16:54:04.189Z,2.61
2022-12-04T16:57:05.829Z,2.63
2022-12-04T17:00:07.508Z,2.63
2022-12-04T17:03:15.290Z,2.65
2022-12-04T17:06:16.866Z,2.68
2022-12-04T17:09:18.558Z,2.67
2022-12-04T17:12:19.848Z,2.69
2022-12-04T17:15:21.118Z,2.69
2022-12-04T17:18:22.389Z,2.70
2022-12-04T17:21:23.670Z,2.72
2022-12-04T17:24:24.971Z,2.73
2022-12-04T17:27:27.207Z,2.73
2022-12-04T17:30:34.315Z,2.75
2022-12-04T17:33:37.187Z,2.76
2022-12-04T17:36:38.435Z,2.75
2022-12-04T17:39:39.695Z,2.76
2022-12-04T17:42:41.731Z,2.76
2022-12-04T17:45:44.323Z,2.78
2022-12-04T17:48:45.609Z,2.78
2022-12-04T17:51:46.858Z,2.79
2022-12-04T17:54:49.416Z,2.80
2022-12-04T17:57:50.680Z,2.80
2022-12-04T18:00:51.998Z,2.80
2022-12-04T18:03:54.457Z,2.79
2022-12-04T18:06:55.729Z,2.82
2022-12-04T18:09:57.239Z,2.80
2022-12-04T18:12:58.699Z,2.81
2022-12-04T18:16:04.181Z,2.81
2022-12-04T18:19:06.570Z,2.81
2022-12-04T18:22:07.817Z,2.82
2022-12-04T18:25:09.415Z,2.82
2022-12-04T18:28:10.678Z,2.83
2022-12-04T18:31:12.518Z,2.82
2022-12-04T18:34:13.934Z,2.83
2022-12-04T18:37:15.204Z,2.83
2022-12-04T18:40:16.562Z,2.82
2022-12-04T18:43:18.442Z,2.83
2022-12-04T18:46:19.907Z,2.84
2022-12-04T18:49:21.221Z,2.85
2022-12-04T18:52:22.583Z,2.85
2022-12-04T18:55:23.859Z,2.83
2022-12-04T18:58:25.108Z,2.82
2022-12-04T19:01:26.956Z,2.83
2022-12-04T19:04:31.467Z,2.82
2022-12-04T19:07:32.802Z,2.83
2022-12-04T19:10:34.072Z,2.83
2022-12-04T19:13:35.689Z,2.84
2022-12-04T19:16:37.045Z,2.83
2022-12-04T19:19:38.376Z,2.84
2022-12-04T19:22:39.768Z,2.87
2022-12-04T19:25:41.037Z,2.88
2022-12-04T19:28:42.292Z,2.87
2022-12-04T19:31:43.622Z,2.89
2022-12-04T19:34:45.052Z,2.92
2022-12-04T19:37:52.371Z,2.93
2022-12-04T19:41:04.225Z,2.94
2022-12-04T19:44:26.391Z,2.92
2022-12-04T19:47:26.757Z,2.90
2022-12-04T19:50:28.037Z,2.92
2022-12-04T19:53:29.457Z,2.93
2022-12-04T19:56:32.090Z,2.94
2022-12-04T19:59:37.663Z,2.93
2022-12-04T20:02:40.012Z,2.92
2022-12-04T20:05:41.386Z,2.92
2022-12-04T20:08:42.956Z,2.93
2022-12-04T20:11:44.254Z,2.92
2022-12-04T20:14:45.558Z,2.92
2022-12-04T20:17:46.850Z,2.91
2022-12-04T20:20:58.614Z,2.92
2022-12-04T20:24:00.892Z,2.92
2022-12-04T20:27:02.180Z,2.90
2022-12-04T20:30:03.606Z,2.89
2022-12-04T20:33:04.880Z,2.90
2022-12-04T20:36:06.359Z,2.91
2022-12-04T20:39:08.487Z,2.90
2022-12-04T20:42:09.763Z,2.90
2022-12-04T20:45:11.134Z,2.93
2022-12-04T20:48:12.424Z,2.94
2022-12-04T20:51:14.793Z,2.94
2022-12-04T20:54:17.047Z,2.93
2022-12-04T20:57:18.313Z,2.94
2022-12-04T21:00:19.669Z,2.94
2022-12-04T21:03:20.953Z,2.95
2022-12-04T21:06:25.604Z,2.93
2022-12-04T21:09:28.632Z,2.96
2022-12-04T21:12:29.916Z,2.98
2022-12-04T21:15:31.272Z,2.98
2022-12-04T21:18:32.561Z,2.98
2022-12-04T21:21:34.511Z,2.96
2022-12-04T21:24:35.781Z,2.97
2022-12-04T21:27:37.053Z,2.96
2022-12-04T21:30:38.361Z,2.97
2022-12-04T21:33:39.636Z,2.98
2022-12-04T21:36:41.027Z,2.98
2022-12-04T21:39:42.975Z,3.00
2022-12-04T21:42:44.221Z,3.00
2022-12-04T21:45:45.481Z,3.00
2022-12-04T21:48:46.742Z,3.01
2022-12-04T21:51:57.422Z,3.00
2022-12-04T21:54:59.236Z,2.99
2022-12-04T21:58:00.554Z,3.03
2022-12-04T22:01:07.780Z,3.04
2022-12-04T22:04:09.178Z,3.02
2022-12-04T22:07:10.487Z,3.04
2022-12-04T22:10:11.763Z,3.05
2022-12-04T22:13:13.362Z,3.03
2022-12-04T22:16:15.745Z,3.01
2022-12-04T22:19:17.067Z,3.01
2022-12-04T22:22:18.312Z,2.99
2022-12-04T22:25:19.589Z,2.99
2022-12-04T22:28:20.892Z,3.00
2022-12-04T22:31:23.276Z,3.02
2022-12-04T22:34:24.569Z,3.04
2022-12-04T22:37:25.845Z,3.04
2022-12-04T22:40:27.105Z,3.06
2022-12-04T22:43:29.661Z,3.09
2022-12-04T22:46:31.287Z,3.08
2022-12-04T22:49:32.599Z,3.10
2022-12-04T22:52:33.853Z,3.09
2022-12-04T22:55:35.464Z,3.10
2022-12-04T22:58:36.929Z,3.12
2022-12-04T23:01:38.260Z,3.09
2022-12-04T23:04:39.665Z,3.11
2022-12-04T23:07:41.027Z,3.12
2022-12-04T23:10:42.349Z,3.11
2022-12-04T23:13:44.233Z,3.13
2022-12-04T23:16:45.628Z,3.12
2022-12-04T23:19:46.941Z,3.11
2022-12-04T23:22:48.172Z,3.10
2022-12-04T23:25:49.454Z,3.14
2022-12-04T23:28:51.013Z,3.12
2022-12-04T23:31:52.330Z,3.14
2022-12-04T23:34:53.643Z,3.13
2022-12-04T23:37:54.866Z,3.13
2022-12-04T23:41:05.418Z,3.13
2022-12-04T23:44:06.686Z,3.13
2022-12-04T23:47:08.001Z,3.12
2022-12-04T23:50:09.438Z,3.11
2022-12-04T23:53:10.779Z,3.12
2022-12-04T23:56:13.675Z,3.13
2022-12-04T23:59:14.959Z,3.11
